sensor_id;sensor_type;location;lat;lon;timestamp;temperature;humidity
19813;DHT22;10066;48.108;11.448;2023-07-29T00:00:04;15.50;99.90
19813;DHT22;10066;48.108;11.448;2023-07-29T00:02:32;15.50;99.90
19813;DHT22;10066;48.108;11.448;2023-07-29T00:04:59;15.50;99.90
19813;DHT22;10066;48.108;11.448;2023-07-29T00:07:26;15.50;99.90
19813;DHT22;10066;48.108;11.448;2023-07-29T00:09:53;15.50;99.90
19813;DHT22;10066;48.108;11.448;2023-07-29T00:12:21;15.50;99.90
19813;DHT22;10066;48.108;11.448;2023-07-29T00:14:48;15.50;99.90
19813;DHT22;10066;48.108;11.448;2023-07-29T00:17:15;15.50;99.90
19813;DHT22;10066;48.108;11.448;2023-07-29T00:19:42;15.50;99.90
19813;DHT22;10066;48.108;11.448;2023-07-29T00:22:09;15.50;99.90
19813;DHT22;10066;48.108;11.448;2023-07-29T00:24:36;15.50;99.90
19813;DHT22;10066;48.108;11.448;2023-07-29T00:27:03;15.40;99.90
19813;DHT22;10066;48.108;11.448;2023-07-29T00:29:31;15.40;99.90
19813;DHT22;10066;48.108;11.448;2023-07-29T00:31:58;15.40;99.90
19813;DHT22;10066;48.108;11.448;2023-07-29T00:34:25;15.40;99.90
19813;DHT22;10066;48.108;11.448;2023-07-29T00:36:52;15.40;99.90
19813;DHT22;10066;48.108;11.448;2023-07-29T00:39:19;15.30;99.90
19813;DHT22;10066;48.108;11.448;2023-07-29T00:41:46;15.30;99.90
19813;DHT22;10066;48.108;11.448;2023-07-29T00:44:13;15.30;99.90
19813;DHT22;10066;48.108;11.448;2023-07-29T00:46:41;15.40;99.90
19813;DHT22;10066;48.108;11.448;2023-07-29T00:49:08;15.40;99.90
19813;DHT22;10066;48.108;11.448;2023-07-29T00:51:36;15.40;99.90
19813;DHT22;10066;48.108;11.448;2023-07-29T00:54:03;15.40;99.90
19813;DHT22;10066;48.108;11.448;2023-07-29T00:56:30;15.50;99.90
19813;DHT22;10066;48.108;11.448;2023-07-29T00:58:57;15.50;99.90
19813;DHT22;10066;48.108;11.448;2023-07-29T01:01:27;15.50;99.90
19813;DHT22;10066;48.108;11.448;2023-07-29T01:03:56;15.60;99.90
19813;DHT22;10066;48.108;11.448;2023-07-29T01:06:29;15.60;99.90
19813;DHT22;10066;48.108;11.448;2023-07-29T01:09:01;15.70;99.90
19813;DHT22;10066;48.108;11.448;2023-07-29T01:11:38;15.70;99.90
19813;DHT22;10066;48.108;11.448;2023-07-29T01:14:12;15.70;99.90
19813;DHT22;10066;48.108;11.448;2023-07-29T01:16:49;15.70;99.90
19813;DHT22;10066;48.108;11.448;2023-07-29T01:19:48;15.70;99.90
19813;DHT22;10066;48.108;11.448;2023-07-29T01:22:21;15.60;99.90
19813;DHT22;10066;48.108;11.448;2023-07-29T01:24:52;15.60;99.90
19813;DHT22;10066;48.108;11.448;2023-07-29T01:27:18;15.60;99.90
19813;DHT22;10066;48.108;11.448;2023-07-29T01:29:45;15.60;99.90
19813;DHT22;10066;48.108;11.448;2023-07-29T01:32:17;15.60;99.90
19813;DHT22;10066;48.108;11.448;2023-07-29T01:34:47;15.50;99.90
19813;DHT22;10066;48.108;11.448;2023-07-29T01:37:19;15.50;99.90
19813;DHT22;10066;48.108;11.448;2023-07-29T01:39:47;15.50;99.90
19813;DHT22;10066;48.108;11.448;2023-07-29T01:42:17;15.40;99.90
19813;DHT22;10066;48.108;11.448;2023-07-29T01:44:44;15.40;99.90
19813;DHT22;10066;48.108;11.448;2023-07-29T01:47:11;15.40;99.90
19813;DHT22;10066;48.108;11.448;2023-07-29T01:49:38;15.40;99.90
19813;DHT22;10066;48.108;11.448;2023-07-29T01:52:06;15.40;99.90
19813;DHT22;10066;48.108;11.448;2023-07-29T01:54:33;15.30;99.90
19813;DHT22;10066;48.108;11.448;2023-07-29T01:57:00;15.30;99.90
19813;DHT22;10066;48.108;11.448;2023-07-29T01:59:28;15.30;99.90
19813;DHT22;10066;48.108;11.448;2023-07-29T02:01:55;15.30;99.90
19813;DHT22;10066;48.108;11.448;2023-07-29T02:04:22;15.30;99.90
19813;DHT22;10066;48.108;11.448;2023-07-29T02:06:49;15.30;99.90
19813;DHT22;10066;48.108;11.448;2023-07-29T02:09:16;15.30;99.90
19813;DHT22;10066;48.108;11.448;2023-07-29T02:11:43;15.40;99.90
19813;DHT22;10066;48.108;11.448;2023-07-29T02:14:10;15.40;99.90
19813;DHT22;10066;48.108;11.448;2023-07-29T02:16:38;15.40;99.90
19813;DHT22;10066;48.108;11.448;2023-07-29T02:19:05;15.40;99.90
19813;DHT22;10066;48.108;11.448;2023-07-29T02:21:32;15.40;99.90
19813;DHT22;10066;48.108;11.448;2023-07-29T02:23:59;15.30;99.90
19813;DHT22;10066;48.108;11.448;2023-07-29T02:26:25;15.30;99.90
19813;DHT22;10066;48.108;11.448;2023-07-29T02:28:53;15.30;99.90
19813;DHT22;10066;48.108;11.448;2023-07-29T02:31:21;15.20;99.90
19813;DHT22;10066;48.108;11.448;2023-07-29T02:33:50;15.20;99.90
19813;DHT22;10066;48.108;11.448;2023-07-29T02:36:17;15.20;99.90
19813;DHT22;10066;48.108;11.448;2023-07-29T02:38:44;15.20;99.90
19813;DHT22;10066;48.108;11.448;2023-07-29T02:41:12;15.20;99.90
19813;DHT22;10066;48.108;11.448;2023-07-29T02:43:42;15.20;99.90
19813;DHT22;10066;48.108;11.448;2023-07-29T02:46:09;15.20;99.90
19813;DHT22;10066;48.108;11.448;2023-07-29T02:48:36;15.20;99.90
19813;DHT22;10066;48.108;11.448;2023-07-29T02:51:04;15.10;99.90
19813;DHT22;10066;48.108;11.448;2023-07-29T02:53:31;15.10;99.90
19813;DHT22;10066;48.108;11.448;2023-07-29T02:55:58;15.10;99.90
19813;DHT22;10066;48.108;11.448;2023-07-29T02:58:25;15.10;99.90
19813;DHT22;10066;48.108;11.448;2023-07-29T03:00:52;15.10;99.90
19813;DHT22;10066;48.108;11.448;2023-07-29T03:03:19;15.10;99.90
19813;DHT22;10066;48.108;11.448;2023-07-29T03:05:46;15.00;99.90
19813;DHT22;10066;48.108;11.448;2023-07-29T03:08:15;15.00;99.90
19813;DHT22;10066;48.108;11.448;2023-07-29T03:10:42;15.00;99.90
19813;DHT22;10066;48.108;11.448;2023-07-29T03:13:09;15.00;99.90
19813;DHT22;10066;48.108;11.448;2023-07-29T03:15:36;15.00;99.90
19813;DHT22;10066;48.108;11.448;2023-07-29T03:18:03;15.10;99.90
19813;DHT22;10066;48.108;11.448;2023-07-29T03:20:30;15.00;99.90
19813;DHT22;10066;48.108;11.448;2023-07-29T03:22:57;15.10;99.90
19813;DHT22;10066;48.108;11.448;2023-07-29T03:25:25;15.00;99.90
19813;DHT22;10066;48.108;11.448;2023-07-29T03:27:52;15.00;99.90
19813;DHT22;10066;48.108;11.448;2023-07-29T03:30:19;15.00;99.90
19813;DHT22;10066;48.108;11.448;2023-07-29T03:32:48;15.00;99.90
19813;DHT22;10066;48.108;11.448;2023-07-29T03:35:15;15.10;99.90
19813;DHT22;10066;48.108;11.448;2023-07-29T03:37:42;15.10;99.90
19813;DHT22;10066;48.108;11.448;2023-07-29T03:40:10;15.10;99.90
19813;DHT22;10066;48.108;11.448;2023-07-29T03:42:38;15.10;99.90
19813;DHT22;10066;48.108;11.448;2023-07-29T03:45:06;15.10;99.90
19813;DHT22;10066;48.108;11.448;2023-07-29T03:47:33;15.20;99.90
19813;DHT22;10066;48.108;11.448;2023-07-29T03:50:00;15.20;99.90
19813;DHT22;10066;48.108;11.448;2023-07-29T03:52:27;15.20;99.90
19813;DHT22;10066;48.108;11.448;2023-07-29T03:54:54;15.30;99.90
19813;DHT22;10066;48.108;11.448;2023-07-29T03:57:21;15.30;99.90
19813;DHT22;10066;48.108;11.448;2023-07-29T03:59:49;15.40;99.90
19813;DHT22;10066;48.108;11.448;2023-07-29T04:02:16;15.40;99.90
19813;DHT22;10066;48.108;11.448;2023-07-29T04:04:43;15.40;99.90
19813;DHT22;10066;48.108;11.448;2023-07-29T04:07:13;15.40;99.90
19813;DHT22;10066;48.108;11.448;2023-07-29T04:09:40;15.50;99.90
19813;DHT22;10066;48.108;11.448;2023-07-29T04:12:08;15.50;99.90
19813;DHT22;10066;48.108;11.448;2023-07-29T04:14:35;15.50;99.90
19813;DHT22;10066;48.108;11.448;2023-07-29T04:17:04;15.50;99.90
19813;DHT22;10066;48.108;11.448;2023-07-29T04:19:32;15.60;99.90
19813;DHT22;10066;48.108;11.448;2023-07-29T04:21:59;15.60;99.90
19813;DHT22;10066;48.108;11.448;2023-07-29T04:24:26;15.70;99.90
19813;DHT22;10066;48.108;11.448;2023-07-29T04:26:53;15.70;99.90
19813;DHT22;10066;48.108;11.448;2023-07-29T04:29:19;15.70;99.90
19813;DHT22;10066;48.108;11.448;2023-07-29T04:31:48;15.80;99.90
19813;DHT22;10066;48.108;11.448;2023-07-29T04:34:16;15.80;99.90
19813;DHT22;10066;48.108;11.448;2023-07-29T04:36:43;15.80;99.90
19813;DHT22;10066;48.108;11.448;2023-07-29T04:39:10;15.70;99.90
19813;DHT22;10066;48.108;11.448;2023-07-29T04:41:37;15.80;99.90
19813;DHT22;10066;48.108;11.448;2023-07-29T04:44:04;15.80;99.90
19813;DHT22;10066;48.108;11.448;2023-07-29T04:46:31;15.80;99.90
19813;DHT22;10066;48.108;11.448;2023-07-29T04:48:58;15.80;99.90
19813;DHT22;10066;48.108;11.448;2023-07-29T04:51:26;15.90;99.90
19813;DHT22;10066;48.108;11.448;2023-07-29T04:53:53;15.90;99.90
19813;DHT22;10066;48.108;11.448;2023-07-29T04:56:20;16.00;99.90
19813;DHT22;10066;48.108;11.448;2023-07-29T04:58:47;16.00;99.90
19813;DHT22;10066;48.108;11.448;2023-07-29T05:01:14;16.10;99.90
19813;DHT22;10066;48.108;11.448;2023-07-29T05:03:41;16.20;99.90
19813;DHT22;10066;48.108;11.448;2023-07-29T05:06:08;16.30;99.90
19813;DHT22;10066;48.108;11.448;2023-07-29T05:08:36;16.50;99.90
19813;DHT22;10066;48.108;11.448;2023-07-29T05:11:03;16.70;99.90
19813;DHT22;10066;48.108;11.448;2023-07-29T05:13:30;16.80;99.90
19813;DHT22;10066;48.108;11.448;2023-07-29T05:15:57;17.00;99.90
19813;DHT22;10066;48.108;11.448;2023-07-29T05:18:24;17.20;99.90
19813;DHT22;10066;48.108;11.448;2023-07-29T05:23:18;17.50;99.90
19813;DHT22;10066;48.108;11.448;2023-07-29T05:25:46;17.60;99.90
19813;DHT22;10066;48.108;11.448;2023-07-29T05:28:13;17.70;99.90
19813;DHT22;10066;48.108;11.448;2023-07-29T05:30:40;17.80;99.90
19813;DHT22;10066;48.108;11.448;2023-07-29T05:33:07;17.90;99.90
19813;DHT22;10066;48.108;11.448;2023-07-29T05:35:34;18.00;99.90
19813;DHT22;10066;48.108;11.448;2023-07-29T05:38:01;18.00;99.90
19813;DHT22;10066;48.108;11.448;2023-07-29T05:40:31;18.10;99.90
19813;DHT22;10066;48.108;11.448;2023-07-29T05:43:00;18.10;99.90
19813;DHT22;10066;48.108;11.448;2023-07-29T05:45:26;18.20;99.90
19813;DHT22;10066;48.108;11.448;2023-07-29T05:47:56;18.20;99.90
19813;DHT22;10066;48.108;11.448;2023-07-29T05:50:23;18.30;99.90
19813;DHT22;10066;48.108;11.448;2023-07-29T05:52:50;18.40;99.90
19813;DHT22;10066;48.108;11.448;2023-07-29T05:55:17;18.50;99.90
19813;DHT22;10066;48.108;11.448;2023-07-29T05:57:43;18.60;99.90
19813;DHT22;10066;48.108;11.448;2023-07-29T06:00:13;18.60;99.90
19813;DHT22;10066;48.108;11.448;2023-07-29T06:02:40;18.70;99.90
19813;DHT22;10066;48.108;11.448;2023-07-29T06:05:07;18.70;99.90
19813;DHT22;10066;48.108;11.448;2023-07-29T06:07:35;18.70;99.90
19813;DHT22;10066;48.108;11.448;2023-07-29T06:10:02;18.70;99.90
19813;DHT22;10066;48.108;11.448;2023-07-29T06:12:29;18.60;99.90
19813;DHT22;10066;48.108;11.448;2023-07-29T06:14:55;18.50;99.90
19813;DHT22;10066;48.108;11.448;2023-07-29T06:17:24;18.40;99.90
19813;DHT22;10066;48.108;11.448;2023-07-29T06:19:51;18.10;99.90
19813;DHT22;10066;48.108;11.448;2023-07-29T06:22:17;17.90;99.90
19813;DHT22;10066;48.108;11.448;2023-07-29T06:24:44;17.70;99.90
19813;DHT22;10066;48.108;11.448;2023-07-29T06:27:12;17.60;99.90
19813;DHT22;10066;48.108;11.448;2023-07-29T06:29:39;17.60;99.90
19813;DHT22;10066;48.108;11.448;2023-07-29T06:32:08;17.60;99.90
19813;DHT22;10066;48.108;11.448;2023-07-29T06:34:36;17.60;99.90
19813;DHT22;10066;48.108;11.448;2023-07-29T06:37:03;17.60;99.90
19813;DHT22;10066;48.108;11.448;2023-07-29T06:39:34;17.70;99.90
19813;DHT22;10066;48.108;11.448;2023-07-29T06:42:00;17.80;99.90
19813;DHT22;10066;48.108;11.448;2023-07-29T06:44:27;17.90;99.90
19813;DHT22;10066;48.108;11.448;2023-07-29T06:46:54;17.90;99.90
19813;DHT22;10066;48.108;11.448;2023-07-29T06:49:21;18.00;99.90
19813;DHT22;10066;48.108;11.448;2023-07-29T06:51:50;18.10;99.90
19813;DHT22;10066;48.108;11.448;2023-07-29T06:54:17;18.20;99.90
19813;DHT22;10066;48.108;11.448;2023-07-29T06:56:44;18.20;99.90
19813;DHT22;10066;48.108;11.448;2023-07-29T06:59:11;18.20;99.90
19813;DHT22;10066;48.108;11.448;2023-07-29T07:01:37;18.20;99.90
19813;DHT22;10066;48.108;11.448;2023-07-29T07:04:04;18.00;99.90
19813;DHT22;10066;48.108;11.448;2023-07-29T07:06:31;18.00;99.90
19813;DHT22;10066;48.108;11.448;2023-07-29T07:09:00;17.80;99.90
19813;DHT22;10066;48.108;11.448;2023-07-29T07:11:27;17.80;99.90
19813;DHT22;10066;48.108;11.448;2023-07-29T07:13:57;17.70;99.90
19813;DHT22;10066;48.108;11.448;2023-07-29T07:16:24;17.70;99.90
19813;DHT22;10066;48.108;11.448;2023-07-29T07:18:51;17.60;99.90
19813;DHT22;10066;48.108;11.448;2023-07-29T07:21:18;17.70;99.90
19813;DHT22;10066;48.108;11.448;2023-07-29T07:23:45;17.70;99.90
19813;DHT22;10066;48.108;11.448;2023-07-29T07:26:13;17.60;99.90
19813;DHT22;10066;48.108;11.448;2023-07-29T07:28:40;17.70;99.90
19813;DHT22;10066;48.108;11.448;2023-07-29T07:31:07;17.70;99.90
19813;DHT22;10066;48.108;11.448;2023-07-29T07:33:34;17.70;99.90
19813;DHT22;10066;48.108;11.448;2023-07-29T07:36:01;17.80;99.90
19813;DHT22;10066;48.108;11.448;2023-07-29T07:38:28;17.80;99.90
19813;DHT22;10066;48.108;11.448;2023-07-29T07:40:55;17.90;99.90
19813;DHT22;10066;48.108;11.448;2023-07-29T07:43:24;17.90;99.90
19813;DHT22;10066;48.108;11.448;2023-07-29T07:45:57;18.00;99.90
19813;DHT22;10066;48.108;11.448;2023-07-29T07:48:25;17.90;99.90
19813;DHT22;10066;48.108;11.448;2023-07-29T07:51:10;18.00;99.90
19813;DHT22;10066;48.108;11.448;2023-07-29T07:53:45;18.30;99.90
19813;DHT22;10066;48.108;11.448;2023-07-29T07:59:32;18.20;99.90
19813;DHT22;10066;48.108;11.448;2023-07-29T08:02:00;18.40;99.90
19813;DHT22;10066;48.108;11.448;2023-07-29T08:04:29;18.50;99.90
19813;DHT22;10066;48.108;11.448;2023-07-29T08:06:56;18.80;99.90
19813;DHT22;10066;48.108;11.448;2023-07-29T08:09:23;18.80;99.90
19813;DHT22;10066;48.108;11.448;2023-07-29T08:11:50;18.80;99.90
19813;DHT22;10066;48.108;11.448;2023-07-29T08:14:16;18.80;99.90
19813;DHT22;10066;48.108;11.448;2023-07-29T08:16:47;18.80;99.90
19813;DHT22;10066;48.108;11.448;2023-07-29T08:19:14;18.90;99.90
19813;DHT22;10066;48.108;11.448;2023-07-29T08:21:43;19.00;99.90
19813;DHT22;10066;48.108;11.448;2023-07-29T08:24:19;19.50;99.90
19813;DHT22;10066;48.108;11.448;2023-07-29T08:26:46;19.30;99.90
19813;DHT22;10066;48.108;11.448;2023-07-29T08:29:13;19.40;99.90
19813;DHT22;10066;48.108;11.448;2023-07-29T08:31:40;19.50;99.90
19813;DHT22;10066;48.108;11.448;2023-07-29T08:34:08;19.60;99.90
19813;DHT22;10066;48.108;11.448;2023-07-29T08:36:35;19.70;99.90
19813;DHT22;10066;48.108;11.448;2023-07-29T08:39:06;19.80;99.90
19813;DHT22;10066;48.108;11.448;2023-07-29T08:41:41;19.90;99.90
19813;DHT22;10066;48.108;11.448;2023-07-29T08:44:18;20.10;99.90
19813;DHT22;10066;48.108;11.448;2023-07-29T08:46:47;20.10;99.90
19813;DHT22;10066;48.108;11.448;2023-07-29T08:49:19;20.20;99.90
19813;DHT22;10066;48.108;11.448;2023-07-29T08:51:49;20.30;99.90
19813;DHT22;10066;48.108;11.448;2023-07-29T08:54:16;20.30;99.90
19813;DHT22;10066;48.108;11.448;2023-07-29T08:56:43;20.40;99.90
19813;DHT22;10066;48.108;11.448;2023-07-29T08:59:11;20.50;99.90
19813;DHT22;10066;48.108;11.448;2023-07-29T09:01:38;20.50;99.90
19813;DHT22;10066;48.108;11.448;2023-07-29T09:04:05;20.50;99.90
19813;DHT22;10066;48.108;11.448;2023-07-29T09:06:35;20.70;99.90
19813;DHT22;10066;48.108;11.448;2023-07-29T09:09:05;20.80;99.90
19813;DHT22;10066;48.108;11.448;2023-07-29T09:11:34;20.90;99.90
19813;DHT22;10066;48.108;11.448;2023-07-29T09:14:01;21.00;99.90
19813;DHT22;10066;48.108;11.448;2023-07-29T09:16:28;21.20;99.90
19813;DHT22;10066;48.108;11.448;2023-07-29T09:18:55;21.30;99.90
19813;DHT22;10066;48.108;11.448;2023-07-29T09:21:23;21.50;99.90
19813;DHT22;10066;48.108;11.448;2023-07-29T09:23:52;21.60;99.90
19813;DHT22;10066;48.108;11.448;2023-07-29T09:26:22;21.70;99.90
19813;DHT22;10066;48.108;11.448;2023-07-29T09:28:52;21.80;99.90
19813;DHT22;10066;48.108;11.448;2023-07-29T09:31:23;21.90;99.90
19813;DHT22;10066;48.108;11.448;2023-07-29T09:33:55;21.90;99.90
19813;DHT22;10066;48.108;11.448;2023-07-29T09:38:53;22.20;99.90
19813;DHT22;10066;48.108;11.448;2023-07-29T09:41:22;22.30;99.90
19813;DHT22;10066;48.108;11.448;2023-07-29T09:43:55;22.50;99.90
19813;DHT22;10066;48.108;11.448;2023-07-29T09:46:23;22.70;99.90
19813;DHT22;10066;48.108;11.448;2023-07-29T09:48:54;22.90;99.90
19813;DHT22;10066;48.108;11.448;2023-07-29T09:51:25;23.00;99.90
19813;DHT22;10066;48.108;11.448;2023-07-29T09:53:54;23.10;99.90
19813;DHT22;10066;48.108;11.448;2023-07-29T09:56:27;23.20;99.90
19813;DHT22;10066;48.108;11.448;2023-07-29T09:58:55;23.30;99.90
19813;DHT22;10066;48.108;11.448;2023-07-29T10:01:23;23.50;99.90
19813;DHT22;10066;48.108;11.448;2023-07-29T10:03:50;23.60;99.90
19813;DHT22;10066;48.108;11.448;2023-07-29T10:06:17;23.80;99.90
19813;DHT22;10066;48.108;11.448;2023-07-29T10:08:48;23.80;99.90
19813;DHT22;10066;48.108;11.448;2023-07-29T10:11:19;23.90;99.90
19813;DHT22;10066;48.108;11.448;2023-07-29T10:13:50;24.00;99.90
19813;DHT22;10066;48.108;11.448;2023-07-29T10:16:18;24.10;99.90
19813;DHT22;10066;48.108;11.448;2023-07-29T10:18:47;24.10;99.90
19813;DHT22;10066;48.108;11.448;2023-07-29T10:21:19;24.10;99.90
19813;DHT22;10066;48.108;11.448;2023-07-29T10:23:56;24.20;99.90
19813;DHT22;10066;48.108;11.448;2023-07-29T10:26:27;24.20;99.90
19813;DHT22;10066;48.108;11.448;2023-07-29T10:28:56;24.30;99.90
19813;DHT22;10066;48.108;11.448;2023-07-29T10:31:32;24.40;99.90
19813;DHT22;10066;48.108;11.448;2023-07-29T10:34:05;24.50;99.90
19813;DHT22;10066;48.108;11.448;2023-07-29T10:36:32;24.60;99.90
19813;DHT22;10066;48.108;11.448;2023-07-29T10:38:59;24.60;99.90
19813;DHT22;10066;48.108;11.448;2023-07-29T10:41:58;24.70;99.90
19813;DHT22;10066;48.108;11.448;2023-07-29T10:45:05;24.80;99.90
19813;DHT22;10066;48.108;11.448;2023-07-29T10:47:45;24.90;99.90
19813;DHT22;10066;48.108;11.448;2023-07-29T10:50:18;25.00;99.90
19813;DHT22;10066;48.108;11.448;2023-07-29T10:52:52;25.10;99.90
19813;DHT22;10066;48.108;11.448;2023-07-29T10:55:29;25.20;99.90
19813;DHT22;10066;48.108;11.448;2023-07-29T10:58:15;25.30;99.90
19813;DHT22;10066;48.108;11.448;2023-07-29T11:00:44;25.40;99.90
19813;DHT22;10066;48.108;11.448;2023-07-29T11:03:12;25.50;99.90
19813;DHT22;10066;48.108;11.448;2023-07-29T11:05:48;25.50;99.90
19813;DHT22;10066;48.108;11.448;2023-07-29T11:08:23;25.50;99.90
19813;DHT22;10066;48.108;11.448;2023-07-29T11:11:07;25.60;99.90
19813;DHT22;10066;48.108;11.448;2023-07-29T11:13:36;25.80;99.90
19813;DHT22;10066;48.108;11.448;2023-07-29T11:16:04;26.00;99.90
19813;DHT22;10066;48.108;11.448;2023-07-29T11:18:33;26.10;99.90
19813;DHT22;10066;48.108;11.448;2023-07-29T11:21:02;26.30;99.90
19813;DHT22;10066;48.108;11.448;2023-07-29T11:23:35;26.30;99.90
19813;DHT22;10066;48.108;11.448;2023-07-29T11:26:03;26.20;99.90
19813;DHT22;10066;48.108;11.448;2023-07-29T11:28:37;25.80;99.90
19813;DHT22;10066;48.108;11.448;2023-07-29T11:31:05;25.30;99.90
19813;DHT22;10066;48.108;11.448;2023-07-29T11:33:32;24.60;99.90
19813;DHT22;10066;48.108;11.448;2023-07-29T11:35:59;24.00;99.90
19813;DHT22;10066;48.108;11.448;2023-07-29T11:38:26;23.80;99.90
19813;DHT22;10066;48.108;11.448;2023-07-29T11:40:57;23.60;99.90
19813;DHT22;10066;48.108;11.448;2023-07-29T11:43:28;23.60;99.90
19813;DHT22;10066;48.108;11.448;2023-07-29T11:46:01;23.60;99.90
19813;DHT22;10066;48.108;11.448;2023-07-29T11:48:33;23.70;99.90
19813;DHT22;10066;48.108;11.448;2023-07-29T11:51:03;23.70;99.90
19813;DHT22;10066;48.108;11.448;2023-07-29T11:53:31;23.70;99.90
19813;DHT22;10066;48.108;11.448;2023-07-29T11:55:58;23.70;99.90
19813;DHT22;10066;48.108;11.448;2023-07-29T11:58:26;23.70;99.90
19813;DHT22;10066;48.108;11.448;2023-07-29T12:00:53;23.60;99.90
19813;DHT22;10066;48.108;11.448;2023-07-29T12:03:20;23.60;99.90
19813;DHT22;10066;48.108;11.448;2023-07-29T12:05:48;23.70;99.90
19813;DHT22;10066;48.108;11.448;2023-07-29T12:08:17;23.80;99.90
19813;DHT22;10066;48.108;11.448;2023-07-29T12:10:44;24.00;99.90
19813;DHT22;10066;48.108;11.448;2023-07-29T12:13:11;24.10;99.90
19813;DHT22;10066;48.108;11.448;2023-07-29T12:15:38;24.30;99.90
19813;DHT22;10066;48.108;11.448;2023-07-29T12:18:09;24.40;99.90
19813;DHT22;10066;48.108;11.448;2023-07-29T12:20:36;24.60;99.90
19813;DHT22;10066;48.108;11.448;2023-07-29T12:23:11;24.60;99.90
19813;DHT22;10066;48.108;11.448;2023-07-29T12:25:39;24.70;99.90
19813;DHT22;10066;48.108;11.448;2023-07-29T12:28:06;24.70;99.90
19813;DHT22;10066;48.108;11.448;2023-07-29T12:30:41;24.80;99.90
19813;DHT22;10066;48.108;11.448;2023-07-29T12:33:08;25.00;99.90
19813;DHT22;10066;48.108;11.448;2023-07-29T12:35:36;25.10;99.90
19813;DHT22;10066;48.108;11.448;2023-07-29T12:38:05;25.30;99.90
19813;DHT22;10066;48.108;11.448;2023-07-29T12:40:32;25.50;99.90
19813;DHT22;10066;48.108;11.448;2023-07-29T12:43:00;25.60;99.90
19813;DHT22;10066;48.108;11.448;2023-07-29T12:45:36;25.60;99.90
19813;DHT22;10066;48.108;11.448;2023-07-29T12:48:05;25.70;99.90
19813;DHT22;10066;48.108;11.448;2023-07-29T12:50:32;25.50;99.90
19813;DHT22;10066;48.108;11.448;2023-07-29T12:52:59;25.40;99.90
19813;DHT22;10066;48.108;11.448;2023-07-29T12:55:27;25.30;99.90
19813;DHT22;10066;48.108;11.448;2023-07-29T12:57:54;25.00;99.90
19813;DHT22;10066;48.108;11.448;2023-07-29T13:00:21;24.70;99.90
19813;DHT22;10066;48.108;11.448;2023-07-29T13:02:48;24.50;99.90
19813;DHT22;10066;48.108;11.448;2023-07-29T13:05:15;23.70;99.90
19813;DHT22;10066;48.108;11.448;2023-07-29T13:07:42;22.30;99.90
19813;DHT22;10066;48.108;11.448;2023-07-29T13:10:10;21.40;99.90
19813;DHT22;10066;48.108;11.448;2023-07-29T13:12:38;20.50;99.90
19813;DHT22;10066;48.108;11.448;2023-07-29T13:15:06;19.90;99.90
19813;DHT22;10066;48.108;11.448;2023-07-29T13:17:33;19.50;99.90
19813;DHT22;10066;48.108;11.448;2023-07-29T13:20:06;19.20;99.90
19813;DHT22;10066;48.108;11.448;2023-07-29T13:22:33;18.80;99.90
19813;DHT22;10066;48.108;11.448;2023-07-29T13:27:37;18.20;99.90
19813;DHT22;10066;48.108;11.448;2023-07-29T13:30:08;18.80;99.90
19813;DHT22;10066;48.108;11.448;2023-07-29T13:32:35;18.70;99.90
19813;DHT22;10066;48.108;11.448;2023-07-29T13:35:05;18.10;99.90
19813;DHT22;10066;48.108;11.448;2023-07-29T13:37:36;18.10;99.90
19813;DHT22;10066;48.108;11.448;2023-07-29T13:40:09;18.50;99.90
19813;DHT22;10066;48.108;11.448;2023-07-29T13:42:39;19.20;99.90
19813;DHT22;10066;48.108;11.448;2023-07-29T13:47:35;18.50;99.90
19813;DHT22;10066;48.108;11.448;2023-07-29T13:50:03;18.50;99.90
19813;DHT22;10066;48.108;11.448;2023-07-29T13:52:36;18.60;99.90
19813;DHT22;10066;48.108;11.448;2023-07-29T13:55:09;18.70;99.90
19813;DHT22;10066;48.108;11.448;2023-07-29T13:57:58;18.80;99.90
19813;DHT22;10066;48.108;11.448;2023-07-29T14:00:43;18.80;99.90
19813;DHT22;10066;48.108;11.448;2023-07-29T14:03:41;18.90;99.90
19813;DHT22;10066;48.108;11.448;2023-07-29T14:09:17;19.00;99.90
19813;DHT22;10066;48.108;11.448;2023-07-29T14:12:13;19.10;99.90
19813;DHT22;10066;48.108;11.448;2023-07-29T14:15:05;19.00;99.90
19813;DHT22;10066;48.108;11.448;2023-07-29T14:17:46;19.00;99.90
19813;DHT22;10066;48.108;11.448;2023-07-29T14:20:54;19.00;99.90
19813;DHT22;10066;48.108;11.448;2023-07-29T14:23:20;19.00;99.90
19813;DHT22;10066;48.108;11.448;2023-07-29T14:26:04;18.80;99.90
19813;DHT22;10066;48.108;11.448;2023-07-29T14:28:41;18.80;99.90
19813;DHT22;10066;48.108;11.448;2023-07-29T14:31:17;18.80;99.90
19813;DHT22;10066;48.108;11.448;2023-07-29T14:33:49;18.80;99.90
19813;DHT22;10066;48.108;11.448;2023-07-29T14:36:21;18.80;99.90
19813;DHT22;10066;48.108;11.448;2023-07-29T14:38:49;18.90;99.90
19813;DHT22;10066;48.108;11.448;2023-07-29T14:41:27;18.90;99.90
19813;DHT22;10066;48.108;11.448;2023-07-29T14:43:57;19.00;99.90
19813;DHT22;10066;48.108;11.448;2023-07-29T14:46:28;19.00;99.90
19813;DHT22;10066;48.108;11.448;2023-07-29T14:48:57;19.10;99.90
19813;DHT22;10066;48.108;11.448;2023-07-29T14:51:24;19.10;99.90
19813;DHT22;10066;48.108;11.448;2023-07-29T14:53:51;19.00;99.90
19813;DHT22;10066;48.108;11.448;2023-07-29T14:56:19;19.00;99.90
19813;DHT22;10066;48.108;11.448;2023-07-29T14:58:46;18.90;99.90
19813;DHT22;10066;48.108;11.448;2023-07-29T15:01:15;18.80;99.90
19813;DHT22;10066;48.108;11.448;2023-07-29T15:03:49;18.80;99.90
19813;DHT22;10066;48.108;11.448;2023-07-29T15:06:28;18.70;99.90
19813;DHT22;10066;48.108;11.448;2023-07-29T15:08:55;18.80;99.90
19813;DHT22;10066;48.108;11.448;2023-07-29T15:11:23;18.80;99.90
19813;DHT22;10066;48.108;11.448;2023-07-29T15:14:03;18.80;99.90
19813;DHT22;10066;48.108;11.448;2023-07-29T15:16:35;18.70;99.90
19813;DHT22;10066;48.108;11.448;2023-07-29T15:19:09;18.80;99.90
19813;DHT22;10066;48.108;11.448;2023-07-29T15:21:45;18.70;99.90
19813;DHT22;10066;48.108;11.448;2023-07-29T15:24:28;18.80;99.90
19813;DHT22;10066;48.108;11.448;2023-07-29T15:27:07;18.80;99.90
19813;DHT22;10066;48.108;11.448;2023-07-29T15:29:42;18.80;99.90
19813;DHT22;10066;48.108;11.448;2023-07-29T15:32:13;18.90;99.90
19813;DHT22;10066;48.108;11.448;2023-07-29T15:34:55;18.90;99.90
19813;DHT22;10066;48.108;11.448;2023-07-29T15:37:25;19.00;99.90
19813;DHT22;10066;48.108;11.448;2023-07-29T15:39:52;19.10;99.90
19813;DHT22;10066;48.108;11.448;2023-07-29T15:42:21;19.10;99.90
19813;DHT22;10066;48.108;11.448;2023-07-29T15:44:51;19.10;99.90